Terminal Aerodrome Forecast
Issued by NWS

Home | Current Version | Previous Version | Text Only | Print | Product List | Glossary On
Versions: 1 2 3 4 5 6 7 8 9 10 11 12 13 14 15 16 17 18 19 20 21 22 23 24 25 26 27 28
000
FTUS43 KGLD 261720
TAFMCK
TAF
KMCK 261720Z 2618/2718 01014G21KT 3SM -SN BLSN BR SCT010 BKN025
      TEMPO 2618/2622 1/2SM SN FZFG
     FM262200 01013G19KT 2SM -SN BR BKN008
      TEMPO 2622/2702 1/2SM SN FZFG
     FM270200 36011KT 1SM -SN BR BKN008
     FM270600 34009KT P6SM BKN015
     FM270900 32007KT P6SM SCT025 SCT050 BKN100
     FM271700 28008KT P6SM SKC=

USA.gov is the U.S. government's official web portal to all federal, state and local government web resources and services.